sensor_id;sensor_type;location;lat;lon;timestamp;P1;durP1;ratioP1;P2;durP2;ratioP2
54197;SDS011;40105;52.366;17.000;2022-09-09T00:01:07;19.30;;;11.10;;
54197;SDS011;40105;52.366;17.000;2022-09-09T00:03:42;21.48;;;11.40;;
54197;SDS011;40105;52.366;17.000;2022-09-09T00:06:13;20.85;;;12.15;;
54197;SDS011;40105;52.366;17.000;2022-09-09T00:08:45;25.30;;;11.40;;
54197;SDS011;40105;52.366;17.000;2022-09-09T00:11:13;18.48;;;11.75;;
54197;SDS011;40105;52.366;17.000;2022-09-09T00:13:48;19.15;;;10.93;;
54197;SDS011;40105;52.366;17.000;2022-09-09T00:16:17;21.33;;;10.70;;
54197;SDS011;40105;52.366;17.000;2022-09-09T00:21:16;16.85;;;11.07;;
54197;SDS011;40105;52.366;17.000;2022-09-09T00:23:47;16.40;;;10.60;;
54197;SDS011;40105;52.366;17.000;2022-09-09T00:26:15;26.27;;;11.57;;
54197;SDS011;40105;52.366;17.000;2022-09-09T00:31:26;21.20;;;11.38;;
54197;SDS011;40105;52.366;17.000;2022-09-09T00:33:52;19.25;;;10.93;;
54197;SDS011;40105;52.366;17.000;2022-09-09T00:36:18;23.30;;;10.57;;
54197;SDS011;40105;52.366;17.000;2022-09-09T00:38:47;19.15;;;10.80;;
54197;SDS011;40105;52.366;17.000;2022-09-09T00:43:57;18.35;;;10.70;;
54197;SDS011;40105;52.366;17.000;2022-09-09T00:46:40;21.17;;;9.98;;
54197;SDS011;40105;52.366;17.000;2022-09-09T00:54:12;23.40;;;10.95;;
54197;SDS011;40105;52.366;17.000;2022-09-09T00:56:47;21.17;;;11.85;;
54197;SDS011;40105;52.366;17.000;2022-09-09T00:59:20;19.85;;;11.63;;
54197;SDS011;40105;52.366;17.000;2022-09-09T01:01:48;19.25;;;11.25;;
54197;SDS011;40105;52.366;17.000;2022-09-09T01:04:16;20.13;;;10.77;;
54197;SDS011;40105;52.366;17.000;2022-09-09T01:06:41;19.95;;;10.93;;
54197;SDS011;40105;52.366;17.000;2022-09-09T01:17:05;17.13;;;10.40;;
54197;SDS011;40105;52.366;17.000;2022-09-09T01:19:45;19.00;;;9.85;;
54197;SDS011;40105;52.366;17.000;2022-09-09T01:24:45;20.63;;;11.27;;
54197;SDS011;40105;52.366;17.000;2022-09-09T01:27:13;19.67;;;10.93;;
54197;SDS011;40105;52.366;17.000;2022-09-09T01:29:38;22.63;;;11.68;;
54197;SDS011;40105;52.366;17.000;2022-09-09T01:34:48;25.45;;;10.75;;
54197;SDS011;40105;52.366;17.000;2022-09-09T01:37:13;20.43;;;11.80;;
54197;SDS011;40105;52.366;17.000;2022-09-09T01:39:39;21.80;;;11.27;;
54197;SDS011;40105;52.366;17.000;2022-09-09T01:42:06;23.45;;;11.55;;
54197;SDS011;40105;52.366;17.000;2022-09-09T01:44:32;21.67;;;11.68;;
54197;SDS011;40105;52.366;17.000;2022-09-09T01:46:58;21.20;;;10.23;;
54197;SDS011;40105;52.366;17.000;2022-09-09T01:49:24;17.20;;;10.37;;
54197;SDS011;40105;52.366;17.000;2022-09-09T01:51:50;16.47;;;10.20;;
54197;SDS011;40105;52.366;17.000;2022-09-09T01:54:17;20.65;;;9.30;;
54197;SDS011;40105;52.366;17.000;2022-09-09T02:04:32;19.08;;;9.32;;
54197;SDS011;40105;52.366;17.000;2022-09-09T02:06:53;19.63;;;9.75;;
54197;SDS011;40105;52.366;17.000;2022-09-09T02:09:21;15.13;;;8.95;;
54197;SDS011;40105;52.366;17.000;2022-09-09T02:11:47;16.83;;;10.00;;
54197;SDS011;40105;52.366;17.000;2022-09-09T02:14:16;15.07;;;9.48;;
54197;SDS011;40105;52.366;17.000;2022-09-09T02:19:47;17.48;;;9.10;;
54197;SDS011;40105;52.366;17.000;2022-09-09T02:22:15;31.42;;;11.35;;
54197;SDS011;40105;52.366;17.000;2022-09-09T02:24:41;14.95;;;9.68;;
54197;SDS011;40105;52.366;17.000;2022-09-09T02:27:07;17.27;;;10.10;;
54197;SDS011;40105;52.366;17.000;2022-09-09T02:29:34;16.83;;;8.88;;
54197;SDS011;40105;52.366;17.000;2022-09-09T02:32:01;16.98;;;9.55;;
54197;SDS011;40105;52.366;17.000;2022-09-09T02:34:29;19.92;;;9.27;;
54197;SDS011;40105;52.366;17.000;2022-09-09T02:36:56;14.38;;;9.25;;
54197;SDS011;40105;52.366;17.000;2022-09-09T02:39:22;17.50;;;9.38;;
54197;SDS011;40105;52.366;17.000;2022-09-09T02:41:47;15.50;;;9.17;;
54197;SDS011;40105;52.366;17.000;2022-09-09T02:44:13;16.47;;;9.33;;
54197;SDS011;40105;52.366;17.000;2022-09-09T02:49:28;15.98;;;9.63;;
54197;SDS011;40105;52.366;17.000;2022-09-09T02:52:00;17.05;;;9.75;;
54197;SDS011;40105;52.366;17.000;2022-09-09T02:54:30;18.80;;;9.23;;
54197;SDS011;40105;52.366;17.000;2022-09-09T02:56:56;16.25;;;8.57;;
54197;SDS011;40105;52.366;17.000;2022-09-09T02:59:24;18.77;;;8.98;;
54197;SDS011;40105;52.366;17.000;2022-09-09T03:01:49;17.33;;;9.20;;
54197;SDS011;40105;52.366;17.000;2022-09-09T03:04:15;16.50;;;8.90;;
54197;SDS011;40105;52.366;17.000;2022-09-09T03:06:40;16.77;;;9.20;;
54197;SDS011;40105;52.366;17.000;2022-09-09T03:09:05;15.30;;;8.53;;
54197;SDS011;40105;52.366;17.000;2022-09-09T03:11:30;16.33;;;8.73;;
54197;SDS011;40105;52.366;17.000;2022-09-09T03:13:55;17.67;;;9.75;;
54197;SDS011;40105;52.366;17.000;2022-09-09T03:16:21;23.37;;;10.00;;
54197;SDS011;40105;52.366;17.000;2022-09-09T03:18:47;15.20;;;8.82;;
54197;SDS011;40105;52.366;17.000;2022-09-09T03:21:12;17.53;;;9.53;;
54197;SDS011;40105;52.366;17.000;2022-09-09T03:23:37;21.97;;;9.83;;
54197;SDS011;40105;52.366;17.000;2022-09-09T03:26:02;15.80;;;9.00;;
54197;SDS011;40105;52.366;17.000;2022-09-09T03:28:27;14.97;;;9.00;;
54197;SDS011;40105;52.366;17.000;2022-09-09T03:31:02;18.90;;;8.80;;
54197;SDS011;40105;52.366;17.000;2022-09-09T03:33:28;15.88;;;8.50;;
54197;SDS011;40105;52.366;17.000;2022-09-09T03:35:54;14.02;;;8.23;;
54197;SDS011;40105;52.366;17.000;2022-09-09T03:38:21;13.15;;;8.25;;
54197;SDS011;40105;52.366;17.000;2022-09-09T03:40:52;13.27;;;9.07;;
54197;SDS011;40105;52.366;17.000;2022-09-09T03:43:22;13.00;;;8.27;;
54197;SDS011;40105;52.366;17.000;2022-09-09T03:45:48;13.27;;;8.45;;
54197;SDS011;40105;52.366;17.000;2022-09-09T03:48:14;17.87;;;8.30;;
54197;SDS011;40105;52.366;17.000;2022-09-09T03:50:43;14.50;;;8.38;;
54197;SDS011;40105;52.366;17.000;2022-09-09T03:53:09;13.38;;;7.80;;
54197;SDS011;40105;52.366;17.000;2022-09-09T03:55:34;13.20;;;7.85;;
54197;SDS011;40105;52.366;17.000;2022-09-09T03:57:59;14.52;;;8.10;;
54197;SDS011;40105;52.366;17.000;2022-09-09T04:00:25;13.13;;;7.25;;
54197;SDS011;40105;52.366;17.000;2022-09-09T04:02:51;12.13;;;7.88;;
54197;SDS011;40105;52.366;17.000;2022-09-09T04:05:19;11.70;;;7.65;;
54197;SDS011;40105;52.366;17.000;2022-09-09T04:07:44;10.47;;;7.20;;
54197;SDS011;40105;52.366;17.000;2022-09-09T04:10:09;11.23;;;7.00;;
54197;SDS011;40105;52.366;17.000;2022-09-09T04:12:34;11.80;;;6.73;;
54197;SDS011;40105;52.366;17.000;2022-09-09T04:14:59;10.93;;;6.90;;
54197;SDS011;40105;52.366;17.000;2022-09-09T04:17:27;11.90;;;7.10;;
54197;SDS011;40105;52.366;17.000;2022-09-09T04:19:52;10.47;;;6.93;;
54197;SDS011;40105;52.366;17.000;2022-09-09T04:22:17;15.15;;;7.78;;
54197;SDS011;40105;52.366;17.000;2022-09-09T04:24:42;15.97;;;8.37;;
54197;SDS011;40105;52.366;17.000;2022-09-09T04:27:07;14.13;;;8.80;;
54197;SDS011;40105;52.366;17.000;2022-09-09T04:29:32;22.20;;;9.97;;
54197;SDS011;40105;52.366;17.000;2022-09-09T04:31:58;19.63;;;9.57;;
54197;SDS011;40105;52.366;17.000;2022-09-09T04:34:23;24.07;;;9.33;;
54197;SDS011;40105;52.366;17.000;2022-09-09T04:36:48;17.03;;;9.00;;
54197;SDS011;40105;52.366;17.000;2022-09-09T04:39:14;18.87;;;9.37;;
54197;SDS011;40105;52.366;17.000;2022-09-09T04:41:39;22.52;;;10.73;;
54197;SDS011;40105;52.366;17.000;2022-09-09T04:44:04;21.50;;;9.67;;
54197;SDS011;40105;52.366;17.000;2022-09-09T04:46:30;17.15;;;9.90;;
54197;SDS011;40105;52.366;17.000;2022-09-09T04:48:55;18.53;;;10.27;;
54197;SDS011;40105;52.366;17.000;2022-09-09T04:51:20;32.30;;;12.63;;
54197;SDS011;40105;52.366;17.000;2022-09-09T04:53:45;23.07;;;11.43;;
54197;SDS011;40105;52.366;17.000;2022-09-09T04:56:13;24.48;;;11.45;;
54197;SDS011;40105;52.366;17.000;2022-09-09T04:58:39;20.98;;;10.20;;
54197;SDS011;40105;52.366;17.000;2022-09-09T05:01:07;18.45;;;10.45;;
54197;SDS011;40105;52.366;17.000;2022-09-09T05:03:33;17.45;;;9.35;;
54197;SDS011;40105;52.366;17.000;2022-09-09T05:06:02;19.98;;;11.13;;
54197;SDS011;40105;52.366;17.000;2022-09-09T05:08:29;25.07;;;11.53;;
54197;SDS011;40105;52.366;17.000;2022-09-09T05:10:54;27.90;;;12.77;;
54197;SDS011;40105;52.366;17.000;2022-09-09T05:13:20;21.65;;;12.45;;
54197;SDS011;40105;52.366;17.000;2022-09-09T05:15:51;24.10;;;13.18;;
54197;SDS011;40105;52.366;17.000;2022-09-09T05:18:16;23.15;;;12.65;;
54197;SDS011;40105;52.366;17.000;2022-09-09T05:20:41;21.67;;;12.10;;
54197;SDS011;40105;52.366;17.000;2022-09-09T05:23:07;30.05;;;13.85;;
54197;SDS011;40105;52.366;17.000;2022-09-09T05:25:32;29.65;;;15.15;;
54197;SDS011;40105;52.366;17.000;2022-09-09T05:27:58;32.33;;;15.68;;
54197;SDS011;40105;52.366;17.000;2022-09-09T05:30:24;25.45;;;14.15;;
54197;SDS011;40105;52.366;17.000;2022-09-09T05:32:51;27.25;;;13.95;;
54197;SDS011;40105;52.366;17.000;2022-09-09T05:35:16;27.15;;;14.05;;
54197;SDS011;40105;52.366;17.000;2022-09-09T05:37:43;33.05;;;13.55;;
54197;SDS011;40105;52.366;17.000;2022-09-09T05:40:10;28.20;;;14.30;;
54197;SDS011;40105;52.366;17.000;2022-09-09T05:42:36;27.00;;;14.10;;
54197;SDS011;40105;52.366;17.000;2022-09-09T05:45:01;35.13;;;15.40;;
54197;SDS011;40105;52.366;17.000;2022-09-09T05:47:26;25.77;;;13.43;;
54197;SDS011;40105;52.366;17.000;2022-09-09T05:49:52;36.72;;;14.10;;
54197;SDS011;40105;52.366;17.000;2022-09-09T05:52:17;28.53;;;13.53;;
54197;SDS011;40105;52.366;17.000;2022-09-09T05:54:43;33.90;;;13.40;;
54197;SDS011;40105;52.366;17.000;2022-09-09T05:57:08;24.83;;;12.40;;
54197;SDS011;40105;52.366;17.000;2022-09-09T05:59:33;23.07;;;12.07;;
54197;SDS011;40105;52.366;17.000;2022-09-09T06:01:59;23.90;;;12.50;;
54197;SDS011;40105;52.366;17.000;2022-09-09T06:04:24;23.70;;;13.02;;
54197;SDS011;40105;52.366;17.000;2022-09-09T06:06:49;27.58;;;13.13;;
54197;SDS011;40105;52.366;17.000;2022-09-09T06:09:15;28.33;;;13.57;;
54197;SDS011;40105;52.366;17.000;2022-09-09T06:11:40;22.63;;;12.60;;
54197;SDS011;40105;52.366;17.000;2022-09-09T06:14:06;22.27;;;12.57;;
54197;SDS011;40105;52.366;17.000;2022-09-09T06:16:31;27.00;;;12.10;;
54197;SDS011;40105;52.366;17.000;2022-09-09T06:18:57;18.48;;;11.73;;
54197;SDS011;40105;52.366;17.000;2022-09-09T06:21:23;19.02;;;11.25;;
54197;SDS011;40105;52.366;17.000;2022-09-09T06:23:49;21.45;;;12.05;;
54197;SDS011;40105;52.366;17.000;2022-09-09T06:28:42;22.00;;;11.55;;
54197;SDS011;40105;52.366;17.000;2022-09-09T06:31:09;26.98;;;12.38;;
54197;SDS011;40105;52.366;17.000;2022-09-09T06:33:35;22.50;;;13.75;;
54197;SDS011;40105;52.366;17.000;2022-09-09T06:36:01;21.40;;;13.75;;
54197;SDS011;40105;52.366;17.000;2022-09-09T06:38:26;23.95;;;13.55;;
54197;SDS011;40105;52.366;17.000;2022-09-09T06:40:53;21.50;;;13.65;;
54197;SDS011;40105;52.366;17.000;2022-09-09T06:43:19;23.05;;;14.30;;
54197;SDS011;40105;52.366;17.000;2022-09-09T06:45:52;24.45;;;15.35;;
54197;SDS011;40105;52.366;17.000;2022-09-09T06:48:17;23.23;;;15.10;;
54197;SDS011;40105;52.366;17.000;2022-09-09T06:50:42;29.23;;;15.13;;
54197;SDS011;40105;52.366;17.000;2022-09-09T06:53:08;28.40;;;16.20;;
54197;SDS011;40105;52.366;17.000;2022-09-09T06:55:33;25.95;;;16.58;;
54197;SDS011;40105;52.366;17.000;2022-09-09T06:57:58;24.40;;;15.83;;
54197;SDS011;40105;52.366;17.000;2022-09-09T07:00:24;26.70;;;14.73;;
54197;SDS011;40105;52.366;17.000;2022-09-09T07:02:50;23.90;;;14.38;;
54197;SDS011;40105;52.366;17.000;2022-09-09T07:05:16;24.50;;;16.50;;
54197;SDS011;40105;52.366;17.000;2022-09-09T07:07:41;26.50;;;16.73;;
54197;SDS011;40105;52.366;17.000;2022-09-09T07:10:06;25.75;;;16.05;;
54197;SDS011;40105;52.366;17.000;2022-09-09T07:12:32;25.25;;;16.60;;
54197;SDS011;40105;52.366;17.000;2022-09-09T07:14:57;23.47;;;15.17;;
54197;SDS011;40105;52.366;17.000;2022-09-09T07:17:22;25.80;;;14.97;;
54197;SDS011;40105;52.366;17.000;2022-09-09T07:19:48;22.90;;;14.60;;
54197;SDS011;40105;52.366;17.000;2022-09-09T07:22:13;28.90;;;13.07;;
54197;SDS011;40105;52.366;17.000;2022-09-09T07:24:39;22.27;;;13.75;;
54197;SDS011;40105;52.366;17.000;2022-09-09T07:27:04;21.90;;;13.23;;
54197;SDS011;40105;52.366;17.000;2022-09-09T07:29:30;17.83;;;11.27;;
54197;SDS011;40105;52.366;17.000;2022-09-09T07:31:55;17.70;;;11.40;;
54197;SDS011;40105;52.366;17.000;2022-09-09T07:34:21;20.35;;;11.88;;
54197;SDS011;40105;52.366;17.000;2022-09-09T07:36:46;15.00;;;10.07;;
54197;SDS011;40105;52.366;17.000;2022-09-09T07:39:12;16.33;;;9.77;;
54197;SDS011;40105;52.366;17.000;2022-09-09T07:41:47;18.08;;;9.95;;
54197;SDS011;40105;52.366;17.000;2022-09-09T07:44:17;16.67;;;9.20;;
54197;SDS011;40105;52.366;17.000;2022-09-09T07:46:43;15.88;;;8.70;;
54197;SDS011;40105;52.366;17.000;2022-09-09T07:49:10;13.40;;;8.60;;
54197;SDS011;40105;52.366;17.000;2022-09-09T07:51:36;10.13;;;8.30;;
54197;SDS011;40105;52.366;17.000;2022-09-09T07:54:03;15.15;;;8.77;;
54197;SDS011;40105;52.366;17.000;2022-09-09T07:56:29;15.52;;;8.90;;
54197;SDS011;40105;52.366;17.000;2022-09-09T07:58:55;14.95;;;9.50;;
54197;SDS011;40105;52.366;17.000;2022-09-09T08:01:22;14.30;;;8.32;;
54197;SDS011;40105;52.366;17.000;2022-09-09T08:03:52;11.15;;;7.15;;
54197;SDS011;40105;52.366;17.000;2022-09-09T08:06:18;13.23;;;8.20;;
54197;SDS011;40105;52.366;17.000;2022-09-09T08:08:43;12.97;;;7.87;;
54197;SDS011;40105;52.366;17.000;2022-09-09T08:13:34;13.10;;;6.82;;
54197;SDS011;40105;52.366;17.000;2022-09-09T08:16:04;9.70;;;6.13;;
54197;SDS011;40105;52.366;17.000;2022-09-09T08:18:29;8.57;;;5.68;;
54197;SDS011;40105;52.366;17.000;2022-09-09T08:20:54;8.73;;;5.23;;
54197;SDS011;40105;52.366;17.000;2022-09-09T08:23:20;6.85;;;3.65;;
54197;SDS011;40105;52.366;17.000;2022-09-09T08:25:46;5.65;;;3.85;;
54197;SDS011;40105;52.366;17.000;2022-09-09T08:28:11;6.20;;;4.30;;
54197;SDS011;40105;52.366;17.000;2022-09-09T08:30:36;5.83;;;4.30;;
54197;SDS011;40105;52.366;17.000;2022-09-09T08:33:02;6.22;;;4.18;;
54197;SDS011;40105;52.366;17.000;2022-09-09T08:35:27;7.37;;;5.00;;
54197;SDS011;40105;52.366;17.000;2022-09-09T08:37:57;10.77;;;4.45;;
54197;SDS011;40105;52.366;17.000;2022-09-09T08:40:22;8.25;;;4.35;;
54197;SDS011;40105;52.366;17.000;2022-09-09T08:42:50;5.63;;;2.83;;
54197;SDS011;40105;52.366;17.000;2022-09-09T08:45:37;5.18;;;3.50;;
54197;SDS011;40105;52.366;17.000;2022-09-09T08:48:19;10.38;;;3.65;;
54197;SDS011;40105;52.366;17.000;2022-09-09T08:50:48;7.22;;;4.18;;
54197;SDS011;40105;52.366;17.000;2022-09-09T08:53:21;7.07;;;4.03;;
54197;SDS011;40105;52.366;17.000;2022-09-09T08:55:54;7.20;;;3.72;;
54197;SDS011;40105;52.366;17.000;2022-09-09T08:58:25;5.03;;;3.13;;
54197;SDS011;40105;52.366;17.000;2022-09-09T09:06:24;5.65;;;3.90;;
54197;SDS011;40105;52.366;17.000;2022-09-09T09:09:00;6.82;;;4.07;;
54197;SDS011;40105;52.366;17.000;2022-09-09T09:11:26;9.85;;;3.75;;
54197;SDS011;40105;52.366;17.000;2022-09-09T09:16:23;5.40;;;3.70;;
54197;SDS011;40105;52.366;17.000;2022-09-09T09:18:51;7.15;;;4.10;;
54197;SDS011;40105;52.366;17.000;2022-09-09T09:21:23;6.80;;;3.78;;
54197;SDS011;40105;52.366;17.000;2022-09-09T09:23:57;14.90;;;4.93;;
54197;SDS011;40105;52.366;17.000;2022-09-09T09:26:23;8.18;;;4.88;;
54197;SDS011;40105;52.366;17.000;2022-09-09T09:28:51;6.28;;;3.72;;
54197;SDS011;40105;52.366;17.000;2022-09-09T09:31:17;5.55;;;2.88;;
54197;SDS011;40105;52.366;17.000;2022-09-09T09:33:50;4.55;;;3.17;;
54197;SDS011;40105;52.366;17.000;2022-09-09T09:36:17;5.03;;;3.00;;
54197;SDS011;40105;52.366;17.000;2022-09-09T09:38:53;5.18;;;2.78;;
54197;SDS011;40105;52.366;17.000;2022-09-09T09:43:55;5.30;;;2.97;;
54197;SDS011;40105;52.366;17.000;2022-09-09T09:46:21;6.03;;;3.40;;
54197;SDS011;40105;52.366;17.000;2022-09-09T09:49:01;5.10;;;3.45;;
54197;SDS011;40105;52.366;17.000;2022-09-09T09:51:27;5.60;;;3.55;;
54197;SDS011;40105;52.366;17.000;2022-09-09T09:53:53;5.32;;;3.30;;
54197;SDS011;40105;52.366;17.000;2022-09-09T09:56:25;7.38;;;3.30;;
54197;SDS011;40105;52.366;17.000;2022-09-09T09:58:51;6.57;;;3.72;;
54197;SDS011;40105;52.366;17.000;2022-09-09T10:01:24;6.95;;;3.72;;
54197;SDS011;40105;52.366;17.000;2022-09-09T10:03:50;5.20;;;3.45;;
54197;SDS011;40105;52.366;17.000;2022-09-09T10:06:16;4.47;;;2.88;;
54197;SDS011;40105;52.366;17.000;2022-09-09T10:08:45;6.43;;;3.60;;
54197;SDS011;40105;52.366;17.000;2022-09-09T10:18:36;4.85;;;1.40;;
54197;SDS011;40105;52.366;17.000;2022-09-09T10:26:16;4.77;;;1.80;;
54197;SDS011;40105;52.366;17.000;2022-09-09T10:28:54;4.50;;;2.60;;
54197;SDS011;40105;52.366;17.000;2022-09-09T10:33:57;3.95;;;2.03;;
54197;SDS011;40105;52.366;17.000;2022-09-09T10:36:25;4.82;;;2.70;;
54197;SDS011;40105;52.366;17.000;2022-09-09T10:41:48;4.68;;;1.85;;
54197;SDS011;40105;52.366;17.000;2022-09-09T10:44:20;3.92;;;1.70;;
54197;SDS011;40105;52.366;17.000;2022-09-09T10:46:52;3.53;;;1.55;;
54197;SDS011;40105;52.366;17.000;2022-09-09T10:49:29;5.50;;;2.63;;
54197;SDS011;40105;52.366;17.000;2022-09-09T10:57:12;4.90;;;1.67;;
54197;SDS011;40105;52.366;17.000;2022-09-09T10:59:40;3.25;;;1.30;;
54197;SDS011;40105;52.366;17.000;2022-09-09T11:02:12;2.75;;;1.80;;
54197;SDS011;40105;52.366;17.000;2022-09-09T11:04:41;2.97;;;1.42;;
54197;SDS011;40105;52.366;17.000;2022-09-09T11:07:08;3.30;;;1.70;;
54197;SDS011;40105;52.366;17.000;2022-09-09T11:09:39;3.92;;;1.23;;
54197;SDS011;40105;52.366;17.000;2022-09-09T11:12:06;4.00;;;1.30;;
54197;SDS011;40105;52.366;17.000;2022-09-09T11:14:42;3.42;;;1.25;;
54197;SDS011;40105;52.366;17.000;2022-09-09T11:17:21;3.47;;;1.05;;
54197;SDS011;40105;52.366;17.000;2022-09-09T11:19:47;2.50;;;1.30;;
54197;SDS011;40105;52.366;17.000;2022-09-09T11:25:05;3.40;;;1.20;;
54197;SDS011;40105;52.366;17.000;2022-09-09T11:27:32;4.80;;;1.23;;
54197;SDS011;40105;52.366;17.000;2022-09-09T11:40:54;3.45;;;0.98;;
54197;SDS011;40105;52.366;17.000;2022-09-09T11:43:23;3.67;;;1.48;;
54197;SDS011;40105;52.366;17.000;2022-09-09T11:45:53;2.33;;;0.98;;
54197;SDS011;40105;52.366;17.000;2022-09-09T11:48:36;5.30;;;1.30;;
54197;SDS011;40105;52.366;17.000;2022-09-09T11:51:08;2.67;;;1.60;;
54197;SDS011;40105;52.366;17.000;2022-09-09T11:53:35;6.25;;;1.38;;
54197;SDS011;40105;52.366;17.000;2022-09-09T11:58:26;3.85;;;1.05;;
54197;SDS011;40105;52.366;17.000;2022-09-09T12:00:52;15.35;;;1.70;;
54197;SDS011;40105;52.366;17.000;2022-09-09T12:03:39;3.70;;;1.20;;
54197;SDS011;40105;52.366;17.000;2022-09-09T12:08:51;2.72;;;1.10;;
54197;SDS011;40105;52.366;17.000;2022-09-09T12:11:27;3.95;;;1.38;;
54197;SDS011;40105;52.366;17.000;2022-09-09T12:14:02;3.55;;;0.85;;
54197;SDS011;40105;52.366;17.000;2022-09-09T12:16:31;1.63;;;0.88;;
54197;SDS011;40105;52.366;17.000;2022-09-09T12:24:49;2.40;;;1.10;;
54197;SDS011;40105;52.366;17.000;2022-09-09T12:29:50;3.27;;;1.00;;
54197;SDS011;40105;52.366;17.000;2022-09-09T12:32:24;3.45;;;1.23;;
54197;SDS011;40105;52.366;17.000;2022-09-09T12:34:53;6.10;;;1.00;;
54197;SDS011;40105;52.366;17.000;2022-09-09T12:37:32;6.25;;;1.23;;
54197;SDS011;40105;52.366;17.000;2022-09-09T12:39:58;1.60;;;1.08;;
54197;SDS011;40105;52.366;17.000;2022-09-09T12:42:24;3.40;;;1.20;;
54197;SDS011;40105;52.366;17.000;2022-09-09T12:44:54;6.40;;;1.15;;
54197;SDS011;40105;52.366;17.000;2022-09-09T12:47:20;2.55;;;0.82;;
54197;SDS011;40105;52.366;17.000;2022-09-09T12:49:47;2.13;;;1.20;;
54197;SDS011;40105;52.366;17.000;2022-09-09T12:52:16;3.08;;;1.08;;
54197;SDS011;40105;52.366;17.000;2022-09-09T12:54:45;3.30;;;1.23;;
54197;SDS011;40105;52.366;17.000;2022-09-09T12:57:16;2.28;;;1.02;;
54197;SDS011;40105;52.366;17.000;2022-09-09T12:59:43;6.05;;;1.30;;
54197;SDS011;40105;52.366;17.000;2022-09-09T13:02:23;3.33;;;0.90;;
54197;SDS011;40105;52.366;17.000;2022-09-09T13:04:49;1.42;;;0.85;;
54197;SDS011;40105;52.366;17.000;2022-09-09T13:07:15;11.82;;;0.90;;
54197;SDS011;40105;52.366;17.000;2022-09-09T13:09:41;3.17;;;0.95;;
54197;SDS011;40105;52.366;17.000;2022-09-09T13:12:07;2.30;;;0.80;;
54197;SDS011;40105;52.366;17.000;2022-09-09T13:14:38;3.45;;;1.08;;
54197;SDS011;40105;52.366;17.000;2022-09-09T13:17:04;1.47;;;0.80;;
54197;SDS011;40105;52.366;17.000;2022-09-09T13:19:31;4.07;;;0.95;;
54197;SDS011;40105;52.366;17.000;2022-09-09T13:21:57;4.47;;;1.10;;
54197;SDS011;40105;52.366;17.000;2022-09-09T13:24:32;2.17;;;0.90;;
54197;SDS011;40105;52.366;17.000;2022-09-09T13:26:59;3.30;;;1.25;;
54197;SDS011;40105;52.366;17.000;2022-09-09T13:29:27;4.88;;;1.20;;
54197;SDS011;40105;52.366;17.000;2022-09-09T13:31:52;5.90;;;1.00;;
54197;SDS011;40105;52.366;17.000;2022-09-09T13:36:53;1.08;;;0.80;;
54197;SDS011;40105;52.366;17.000;2022-09-09T13:39:19;2.22;;;0.95;;
54197;SDS011;40105;52.366;17.000;2022-09-09T13:41:45;5.45;;;1.05;;
54197;SDS011;40105;52.366;17.000;2022-09-09T13:44:20;3.03;;;1.23;;
54197;SDS011;40105;52.366;17.000;2022-09-09T13:46:47;2.80;;;1.00;;
54197;SDS011;40105;52.366;17.000;2022-09-09T13:51:42;4.05;;;1.17;;
54197;SDS011;40105;52.366;17.000;2022-09-09T13:54:11;5.00;;;1.27;;
54197;SDS011;40105;52.366;17.000;2022-09-09T13:56:37;5.65;;;0.90;;
54197;SDS011;40105;52.366;17.000;2022-09-09T13:59:04;2.97;;;0.90;;
54197;SDS011;40105;52.366;17.000;2022-09-09T14:01:30;4.18;;;1.00;;
54197;SDS011;40105;52.366;17.000;2022-09-09T14:03:56;2.15;;;0.90;;
54197;SDS011;40105;52.366;17.000;2022-09-09T14:06:21;2.97;;;0.73;;
54197;SDS011;40105;52.366;17.000;2022-09-09T14:08:50;4.00;;;0.95;;
54197;SDS011;40105;52.366;17.000;2022-09-09T14:11:15;4.80;;;1.00;;
54197;SDS011;40105;52.366;17.000;2022-09-09T14:13:40;3.50;;;0.90;;
54197;SDS011;40105;52.366;17.000;2022-09-09T14:16:05;2.90;;;1.07;;
54197;SDS011;40105;52.366;17.000;2022-09-09T14:18:31;1.50;;;0.60;;
54197;SDS011;40105;52.366;17.000;2022-09-09T14:20:56;4.33;;;1.17;;
54197;SDS011;40105;52.366;17.000;2022-09-09T14:23:23;2.78;;;0.95;;
54197;SDS011;40105;52.366;17.000;2022-09-09T14:25:49;2.20;;;0.70;;
54197;SDS011;40105;52.366;17.000;2022-09-09T14:28:14;2.37;;;0.90;;
54197;SDS011;40105;52.366;17.000;2022-09-09T14:30:40;5.38;;;0.80;;
54197;SDS011;40105;52.366;17.000;2022-09-09T14:33:06;1.77;;;0.70;;
54197;SDS011;40105;52.366;17.000;2022-09-09T14:35:31;3.67;;;0.90;;
54197;SDS011;40105;52.366;17.000;2022-09-09T14:37:58;1.48;;;0.75;;
54197;SDS011;40105;52.366;17.000;2022-09-09T14:40:23;1.80;;;0.60;;
54197;SDS011;40105;52.366;17.000;2022-09-09T14:42:48;2.53;;;0.70;;
54197;SDS011;40105;52.366;17.000;2022-09-09T14:45:13;3.07;;;0.63;;
54197;SDS011;40105;52.366;17.000;2022-09-09T14:47:39;2.30;;;0.70;;
54197;SDS011;40105;52.366;17.000;2022-09-09T14:50:04;1.23;;;0.70;;
54197;SDS011;40105;52.366;17.000;2022-09-09T14:52:30;2.80;;;0.75;;
54197;SDS011;40105;52.366;17.000;2022-09-09T14:54:55;8.03;;;1.00;;
54197;SDS011;40105;52.366;17.000;2022-09-09T14:57:20;2.03;;;0.70;;
54197;SDS011;40105;52.366;17.000;2022-09-09T14:59:45;6.90;;;1.27;;
54197;SDS011;40105;52.366;17.000;2022-09-09T15:02:10;2.83;;;0.50;;
54197;SDS011;40105;52.366;17.000;2022-09-09T15:04:38;2.45;;;0.95;;
54197;SDS011;40105;52.366;17.000;2022-09-09T15:07:04;4.57;;;2.15;;
54197;SDS011;40105;52.366;17.000;2022-09-09T15:09:29;5.97;;;0.80;;
54197;SDS011;40105;52.366;17.000;2022-09-09T15:11:54;1.75;;;0.80;;
54197;SDS011;40105;52.366;17.000;2022-09-09T15:14:20;6.97;;;1.00;;
54197;SDS011;40105;52.366;17.000;2022-09-09T15:16:45;3.13;;;2.00;;
54197;SDS011;40105;52.366;17.000;2022-09-09T15:19:10;4.07;;;1.07;;
54197;SDS011;40105;52.366;17.000;2022-09-09T15:21:36;10.60;;;1.00;;
54197;SDS011;40105;52.366;17.000;2022-09-09T15:24:01;3.78;;;0.90;;
54197;SDS011;40105;52.366;17.000;2022-09-09T15:26:27;6.30;;;1.00;;
54197;SDS011;40105;52.366;17.000;2022-09-09T15:28:53;7.18;;;1.20;;
54197;SDS011;40105;52.366;17.000;2022-09-09T15:31:26;2.13;;;1.17;;
54197;SDS011;40105;52.366;17.000;2022-09-09T15:33:54;2.25;;;1.08;;
54197;SDS011;40105;52.366;17.000;2022-09-09T15:36:25;2.22;;;0.95;;
54197;SDS011;40105;52.366;17.000;2022-09-09T15:38:51;7.18;;;1.10;;
54197;SDS011;40105;52.366;17.000;2022-09-09T15:41:17;5.73;;;1.07;;
54197;SDS011;40105;52.366;17.000;2022-09-09T15:43:46;2.53;;;1.02;;
54197;SDS011;40105;52.366;17.000;2022-09-09T15:48:43;9.30;;;0.90;;
54197;SDS011;40105;52.366;17.000;2022-09-09T15:53:39;3.13;;;0.90;;
54197;SDS011;40105;52.366;17.000;2022-09-09T15:56:07;5.17;;;1.30;;
54197;SDS011;40105;52.366;17.000;2022-09-09T15:58:33;4.45;;;1.00;;
54197;SDS011;40105;52.366;17.000;2022-09-09T16:01:05;2.10;;;1.00;;
54197;SDS011;40105;52.366;17.000;2022-09-09T16:03:35;5.30;;;1.02;;
54197;SDS011;40105;52.366;17.000;2022-09-09T16:06:01;2.22;;;1.25;;
54197;SDS011;40105;52.366;17.000;2022-09-09T16:08:36;2.83;;;1.10;;
54197;SDS011;40105;52.366;17.000;2022-09-09T16:11:08;2.65;;;1.27;;
54197;SDS011;40105;52.366;17.000;2022-09-09T16:13:38;3.15;;;0.85;;
54197;SDS011;40105;52.366;17.000;2022-09-09T16:16:04;6.85;;;1.25;;
54197;SDS011;40105;52.366;17.000;2022-09-09T16:18:36;4.25;;;1.10;;
54197;SDS011;40105;52.366;17.000;2022-09-09T16:21:01;3.60;;;1.25;;